Time;durP1;ratioP1;P1;durP2;ratioP2;P2;SDS_P1;SDS_P2;PMS_P1;PMS_P2;Temp;Humidity;BMP_temperature;BMP_pressure;BME280_temperature;BME280_humidity;BME280_pressure;Samples;Min_cycle;Max_cycle;Signal;HPM_P1;HPM_P2
2022/05/06 00:01:31;;;;;;;23.63;11.88;;;;;;;-142.75;100.00;78316.72;5031071;28;20052;-66
2022/05/06 00:03:57;;;;;;;30.40;11.63;;;;;;;-142.75;100.00;78314.75;5029735;28;20104;-67
2022/05/06 00:06:22;;;;;;;30.13;13.68;;;;;;;-142.75;100.00;78326.56;5030924;28;20108;-67
2022/05/06 00:08:47;;;;;;;31.57;13.03;;;;;;;-142.75;100.00;78322.63;5029085;28;20548;-67
2022/05/06 00:11:13;;;;;;;29.52;12.43;;;;;;;-142.75;100.00;78308.84;5030906;28;20272;-67
2022/05/06 00:13:38;;;;;;;26.55;12.52;;;;;;;-142.75;100.00;78306.88;5030917;28;20787;-67
2022/05/06 00:16:03;;;;;;;31.70;13.05;;;;;;;-142.75;100.00;78300.97;5030754;28;20021;-67
2022/05/06 00:18:31;;;;;;;27.67;13.52;;;;;;;-142.75;100.00;78300.97;5030339;28;22068;-67
2022/05/06 00:20:56;;;;;;;32.70;14.55;;;;;;;-142.75;100.00;78297.00;5030790;28;20025;-67
2022/05/06 00:23:22;;;;;;;33.80;13.88;;;;;;;-142.75;100.00;78300.97;5029462;28;20033;-67
2022/05/06 00:25:47;;;;;;;33.45;13.63;;;;;;;-142.75;100.00;78297.00;5030548;28;20507;-67
2022/05/06 00:28:12;;;;;;;35.75;14.13;;;;;;;-142.75;100.00;78291.09;5031184;28;20032;-67
2022/05/06 00:30:38;;;;;;;32.88;13.98;;;;;;;-142.75;100.00;78291.09;5030203;28;20018;-67
2022/05/06 00:33:05;;;;;;;35.08;13.80;;;;;;;-142.75;100.00;78289.13;5030458;28;20438;-67
2022/05/06 00:35:30;;;;;;;36.65;14.57;;;;;;;-142.75;100.00;78287.16;5030316;28;20680;-67
2022/05/06 00:37:55;;;;;;;29.55;13.60;;;;;;;-142.75;100.00;78279.28;5030118;28;20060;-66
2022/05/06 00:40:21;;;;;;;31.92;14.15;;;;;;;-142.75;100.00;78293.06;5030324;28;20021;-67
2022/05/06 00:42:50;;;;;;;31.52;13.68;;;;;;;-142.75;100.00;78283.22;5030266;28;20021;-67
2022/05/06 00:45:15;;;;;;;28.23;12.65;;;;;;;-142.75;100.00;78281.25;5030213;28;20048;-67
2022/05/06 00:47:40;;;;;;;26.67;12.50;;;;;;;-142.75;100.00;78263.53;5030199;28;20645;-66
2022/05/06 00:50:06;;;;;;;32.30;13.82;;;;;;;-142.75;100.00;78263.53;5029877;28;20502;-67
2022/05/06 00:52:32;;;;;;;27.42;12.25;;;;;;;-142.75;100.00;78265.50;5029799;28;20029;-66
2022/05/06 00:54:57;;;;;;;26.25;12.25;;;;;;;-142.75;100.00;78263.53;5030070;28;20478;-67
2022/05/06 00:57:22;;;;;;;24.50;12.27;;;;;;;-142.75;100.00;78267.47;5030575;28;20025;-67
2022/05/06 01:02:32;;;;;;;26.33;12.50;;;;;;;-142.75;100.00;78265.50;5029916;28;20043;-66
2022/05/06 01:04:57;;;;;;;31.88;13.02;;;;;;;-142.75;100.00;78271.41;5029899;28;20104;-67
2022/05/06 01:07:23;;;;;;;20.92;10.95;;;;;;;-142.75;100.00;78269.44;5029796;28;20116;-67
2022/05/06 01:09:51;;;;;;;27.05;11.60;;;;;;;-142.75;100.00;78277.31;5026579;28;20653;-67
2022/05/06 01:12:17;;;;;;;31.13;12.25;;;;;;;-142.75;100.00;78285.19;5029738;28;20036;-66
2022/05/06 01:14:42;;;;;;;25.00;12.63;;;;;;;-142.75;100.00;78283.22;5029626;28;20477;-67
2022/05/06 01:17:09;;;;;;;;;;;;;;;-142.75;100.00;78263.53;5029972;28;20041;-67
2022/05/06 01:19:35;;;;;;;30.98;12.98;;;;;;;-142.75;100.00;78277.31;5029220;28;19971;-67
2022/05/06 01:22:00;;;;;;;;;;;;;;;-142.75;100.00;78283.22;5029364;28;20022;-66
2022/05/06 01:24:26;;;;;;;37.88;15.07;;;;;;;-142.75;100.00;78287.16;5029491;28;20378;-67
2022/05/06 01:26:58;;;;;;;35.22;14.15;;;;;;;-142.75;100.00;78275.34;5029675;28;20021;-66
2022/05/06 01:29:24;;;;;;;34.72;14.05;;;;;;;-142.75;100.00;78275.34;5029538;28;20017;-66
2022/05/06 01:31:53;;;;;;;32.47;14.48;;;;;;;-142.75;100.00;78281.25;5029215;28;20043;-66
2022/05/06 01:34:21;;;;;;;33.50;13.18;;;;;;;-142.75;100.00;78275.34;5027980;28;20022;-66
2022/05/06 01:36:50;;;;;;;28.85;12.82;;;;;;;-142.75;100.00;78271.41;5029309;28;20519;-66
2022/05/06 01:39:19;;;;;;;29.73;13.32;;;;;;;-142.75;100.00;78263.53;5027171;28;20036;-66
2022/05/06 01:41:51;;;;;;;31.02;11.63;;;;;;;-142.75;100.00;78255.66;5029125;28;20044;-67
2022/05/06 01:44:19;;;;;;;25.80;11.70;;;;;;;-142.75;100.00;78247.78;5029245;28;20083;-66
2022/05/06 01:46:44;;;;;;;32.03;13.10;;;;;;;-142.75;100.00;78255.66;5029066;28;20449;-67
2022/05/06 01:49:12;;;;;;;32.95;12.70;;;;;;;-142.75;100.00;78265.50;5028807;28;20024;-66
2022/05/06 01:51:38;;;;;;;37.40;13.45;;;;;;;-142.75;100.00;78269.44;5029061;28;20487;-67
2022/05/06 01:54:04;;;;;;;33.13;13.35;;;;;;;-142.75;100.00;78259.59;5028837;28;20025;-67
2022/05/06 01:56:29;;;;;;;40.95;14.43;;;;;;;-142.75;100.00;78269.44;5028901;28;20040;-67
2022/05/06 01:58:54;;;;;;;33.97;13.60;;;;;;;-142.75;100.00;78263.53;5029515;28;20025;-66
2022/05/06 02:01:20;;;;;;;36.90;14.48;;;;;;;-142.75;100.00;78267.47;5029127;28;20049;-66
2022/05/06 02:06:29;;;;;;;36.10;14.38;;;;;;;-142.75;100.00;78255.66;5029071;28;20107;-66
2022/05/06 02:08:54;;;;;;;34.70;14.27;;;;;;;-142.75;100.00;78259.59;5051859;22;20013;-64
2022/05/06 02:11:20;;;;;;;36.55;14.15;;;;;;;-142.75;100.00;78257.63;5027566;28;20486;-66
2022/05/06 02:13:45;;;;;;;31.52;12.55;;;;;;;-142.75;100.00;78263.53;5026152;28;20055;-66
2022/05/06 02:16:11;;;;;;;30.70;13.13;;;;;;;-142.75;100.00;78253.69;5028768;28;20027;-68
2022/05/06 02:18:36;;;;;;;35.30;13.57;;;;;;;-142.75;100.00;78257.63;5027156;28;20049;-68
2022/05/06 02:21:02;;;;;;;41.45;15.38;;;;;;;-142.75;100.00;78267.47;5028565;28;20022;-68
2022/05/06 02:23:27;;;;;;;40.47;14.88;;;;;;;-142.75;100.00;78271.41;5028660;28;20041;-68
2022/05/06 02:25:53;;;;;;;38.42;15.95;;;;;;;-142.75;100.00;78255.66;5027353;28;20025;-68
2022/05/06 02:28:19;;;;;;;46.85;17.80;;;;;;;-142.75;100.00;78257.63;5029166;28;20552;-69
2022/05/06 02:33:30;;;;;;;41.45;15.95;;;;;;;-142.75;100.00;78249.75;5030132;28;20052;-68
2022/05/06 02:35:56;;;;;;;42.70;17.70;;;;;;;-142.75;100.00;78253.69;5032502;28;20037;-68
2022/05/06 02:38:22;;;;;;;;;;;;;;;-142.75;100.00;78263.53;5032555;28;20378;-69
2022/05/06 02:40:49;;;;;;;41.03;15.57;;;;;;;-142.75;100.00;78261.56;5032381;28;19913;-68
2022/05/06 02:43:15;;;;;;;44.92;16.98;;;;;;;-142.75;100.00;78251.72;5031143;28;20028;-67
2022/05/06 02:45:41;;;;;;;43.03;17.88;;;;;;;-142.75;100.00;78263.53;5032172;28;20025;-69
2022/05/06 02:48:07;;;;;;;45.00;16.73;;;;;;;-142.75;100.00;78255.66;5032064;28;20494;-68
2022/05/06 02:50:32;;;;;;;43.80;16.42;;;;;;;-142.75;100.00;78261.56;5032139;28;20041;-68
2022/05/06 02:52:57;;;;;;;43.38;16.83;;;;;;;-142.75;100.00;78263.53;5032252;28;20390;-68
2022/05/06 02:55:23;;;;;;;40.83;16.33;;;;;;;-142.75;100.00;78259.59;5032259;28;20437;-68
2022/05/06 02:57:50;;;;;;;45.40;17.02;;;;;;;-142.75;100.00;78253.69;5031116;28;20056;-68
2022/05/06 03:00:15;;;;;;;44.08;17.02;;;;;;;-142.75;100.00;78249.75;5032175;28;20040;-68
2022/05/06 03:02:41;;;;;;;45.45;17.38;;;;;;;-142.75;100.00;78239.91;5032097;28;20475;-69
2022/05/06 03:05:07;;;;;;;41.40;16.92;;;;;;;-142.75;100.00;78247.78;5031915;28;20031;-68
2022/05/06 03:07:32;;;;;;;40.20;15.93;;;;;;;-142.75;100.00;78249.75;5031966;28;20037;-68
2022/05/06 03:09:57;;;;;;;38.65;15.82;;;;;;;-142.75;100.00;78249.75;5031272;28;20479;-67
2022/05/06 03:12:26;;;;;;;33.80;15.05;;;;;;;-142.75;100.00;78251.72;5031827;28;20096;-68
2022/05/06 03:14:52;;;;;;;34.95;16.08;;;;;;;-142.75;100.00;78245.81;5031881;28;20032;-68
2022/05/06 03:17:17;;;;;;;34.40;15.65;;;;;;;-142.75;100.00;78243.84;5031828;28;20029;-68
2022/05/06 03:19:42;;;;;;;36.88;15.63;;;;;;;-142.75;100.00;78251.72;5029703;28;20406;-67
2022/05/06 03:22:08;;;;;;;38.55;16.98;;;;;;;-142.75;100.00;78251.72;5030481;28;20044;-68
2022/05/06 03:24:33;;;;;;;30.70;15.23;;;;;;;-142.75;100.00;78249.75;5031847;28;20071;-68
2022/05/06 03:26:59;;;;;;;37.50;16.17;;;;;;;-142.75;100.00;78253.69;5030376;28;20025;-69
2022/05/06 03:29:24;;;;;;;41.08;17.10;;;;;;;-142.75;100.00;78251.72;5032129;28;20026;-68
2022/05/06 03:31:52;;;;;;;39.15;15.88;;;;;;;-142.75;100.00;78251.72;5031372;28;20475;-69
2022/05/06 03:34:17;;;;;;;43.80;17.45;;;;;;;-142.75;100.00;78259.59;5031466;28;20481;-68
2022/05/06 03:36:44;;;;;;;40.83;17.25;;;;;;;-142.75;100.00;78247.78;5031661;28;20109;-66
2022/05/06 03:39:10;;;;;;;43.33;17.83;;;;;;;-142.75;100.00;78245.81;5029769;28;20033;-68
2022/05/06 03:41:36;;;;;;;41.00;18.17;;;;;;;-142.75;100.00;78245.81;5031372;28;20040;-68
2022/05/06 03:44:02;;;;;;;46.97;18.67;;;;;;;-142.75;100.00;78247.78;5031096;28;20433;-68
2022/05/06 03:46:27;;;;;;;41.97;17.17;;;;;;;-142.75;100.00;78241.88;5030348;28;20570;-67
2022/05/06 03:48:53;;;;;;;37.67;17.88;;;;;;;-142.75;100.00;78245.81;5030726;28;20042;-68
2022/05/06 03:51:21;;;;;;;48.53;17.33;;;;;;;-142.75;100.00;78243.84;5031131;28;20119;-69
2022/05/06 03:53:51;;;;;;;41.20;17.38;;;;;;;-142.75;100.00;78241.88;5029890;28;20056;-69
2022/05/06 03:56:18;;;;;;;45.63;17.10;;;;;;;-142.75;100.00;78247.78;5029914;28;20025;-68
2022/05/06 03:58:43;;;;;;;;;;;;;;;-142.75;100.00;78247.78;5032008;28;20021;-67
2022/05/06 04:01:09;;;;;;;40.33;16.20;;;;;;;-142.75;100.00;78239.91;5029709;28;20340;-68
2022/05/06 04:03:35;;;;;;;;;;;;;;;-142.75;100.00;78241.88;5030076;28;20035;-68
2022/05/06 04:06:00;;;;;;;38.00;15.38;;;;;;;-142.75;100.00;78239.91;5029654;28;20043;-67
2022/05/06 04:08:25;;;;;;;34.78;14.40;;;;;;;-142.75;100.00;78241.88;5030374;28;20407;-66
2022/05/06 04:10:51;;;;;;;45.47;15.65;;;;;;;-142.75;100.00;78235.97;5030771;28;20021;-68
2022/05/06 04:13:18;;;;;;;42.22;15.13;;;;;;;-142.75;100.00;78239.91;5030809;28;20036;-69
2022/05/06 04:15:47;;;;;;;38.88;15.00;;;;;;;-142.75;100.00;78241.88;5030727;28;20030;-68
2022/05/06 04:18:13;;;;;;;41.20;16.50;;;;;;;-142.75;100.00;78243.84;5028993;28;20116;-68
2022/05/06 04:23:31;;;;;;;45.30;16.20;;;;;;;-142.75;100.00;78243.84;5030890;28;20095;-68
2022/05/06 04:26:02;;;;;;;42.55;15.40;;;;;;;-142.75;100.00;78247.78;5030579;28;20433;-68
2022/05/06 04:28:28;;;;;;;41.20;15.43;;;;;;;-142.75;100.00;78237.94;5031057;28;20491;-69
2022/05/06 04:30:54;;;;;;;39.60;16.38;;;;;;;-142.75;100.00;78245.81;5030453;28;20071;-70
2022/05/06 04:33:20;;;;;;;46.92;16.50;;;;;;;-142.75;100.00;78247.78;5030671;28;20029;-68
2022/05/06 04:35:46;;;;;;;42.25;16.98;;;;;;;-142.75;100.00;78243.84;5029255;28;20406;-68
2022/05/06 04:38:12;;;;;;;;;;;;;;;-142.75;100.00;78237.94;5030687;28;20100;-66
2022/05/06 04:40:38;;;;;;;39.35;15.48;;;;;;;-142.75;100.00;78232.03;5030162;28;20373;-68
2022/05/06 04:43:03;;;;;;;41.92;15.98;;;;;;;-142.75;100.00;78228.09;5030223;28;20075;-68
2022/05/06 04:45:29;;;;;;;45.78;16.80;;;;;;;-142.75;100.00;78226.13;5028904;28;20411;-67
2022/05/06 04:47:54;;;;;;;45.15;16.95;;;;;;;-142.75;100.00;78226.13;5029716;28;20031;-69
2022/05/06 04:50:20;;;;;;;43.78;16.30;;;;;;;-142.75;100.00;78230.06;5028775;28;20584;-67
2022/05/06 04:52:45;;;;;;;51.08;16.95;;;;;;;-142.75;100.00;78239.91;5030037;28;20163;-68
2022/05/06 04:55:10;;;;;;;40.65;15.30;;;;;;;-142.75;100.00;78239.91;5029195;28;20025;-67
2022/05/06 04:57:36;;;;;;;43.60;17.40;;;;;;;-142.75;100.00;78235.97;5029787;28;20028;-68
2022/05/06 05:00:03;;;;;;;45.05;17.20;;;;;;;-142.75;100.00;78241.88;5030606;28;20096;-68
2022/05/06 05:02:28;;;;;;;48.95;18.67;;;;;;;-142.75;100.00;78232.03;5029787;28;20107;-67
2022/05/06 05:04:57;;;;;;;45.33;18.55;;;;;;;-142.75;100.00;78234.00;5028580;28;20487;-68
2022/05/06 05:07:23;;;;;;;50.67;18.83;;;;;;;-142.75;100.00;78224.16;5029759;28;20035;-69
2022/05/06 05:09:48;;;;;;;48.47;18.08;;;;;;;-142.75;100.00;78222.19;5029229;28;20022;-68
2022/05/06 05:12:13;;;;;;;49.47;17.98;;;;;;;-142.75;100.00;78224.16;5029560;28;20028;-68
2022/05/06 05:14:39;;;;;;;47.47;18.20;;;;;;;-142.75;100.00;78222.19;5029559;28;20041;-66
2022/05/06 05:17:04;;;;;;;47.03;17.70;;;;;;;-142.75;100.00;78218.25;5029582;28;20033;-68
2022/05/06 05:19:29;;;;;;;45.58;17.42;;;;;;;-142.75;100.00;78212.34;5029055;28;20029;-68
2022/05/06 05:21:55;;;;;;;;;;;;;;;-142.75;100.00;78224.16;5029924;28;20048;-68
2022/05/06 05:24:21;;;;;;;42.83;16.30;;;;;;;-142.75;100.00;78216.28;5029108;28;20394;-66
2022/05/06 05:26:46;;;;;;;;;;;;;;;-142.75;100.00;78216.28;5029767;28;20029;-68
2022/05/06 05:29:11;;;;;;;49.30;17.83;;;;;;;-142.75;100.00;78212.34;5030097;28;19920;-68
2022/05/06 05:31:37;;;;;;;50.03;17.98;;;;;;;-142.75;100.00;78226.13;5029446;28;20064;-68
2022/05/06 05:34:02;;;;;;;;;;;;;;;-142.75;100.00;78216.28;5029931;28;20034;-67
2022/05/06 05:36:27;;;;;;;48.50;17.67;;;;;;;-142.75;100.00;78220.22;5029138;28;20024;-66
2022/05/06 05:38:52;;;;;;;51.45;18.10;;;;;;;-142.75;100.00;78208.41;5028842;28;20022;-68
2022/05/06 05:41:18;;;;;;;52.83;19.20;;;;;;;-142.75;100.00;78216.28;5029106;28;20060;-67
2022/05/06 05:49:11;;;;;;;49.78;17.75;;;;;;;-142.75;100.00;78194.63;5028915;28;20557;-68
2022/05/06 05:51:36;;;;;;;50.67;18.48;;;;;;;-142.75;100.00;78184.78;5029072;28;20025;-68
2022/05/06 05:54:02;;;;;;;;;;;;;;;-142.75;100.00;78180.81;5028047;28;20037;-68
2022/05/06 05:56:27;;;;;;;56.60;18.33;;;;;;;-142.75;100.00;78184.78;5028793;28;19913;-70
2022/05/06 05:58:52;;;;;;;54.90;19.05;;;;;;;-142.75;100.00;78167.03;5029494;28;20613;-68
2022/05/06 06:01:18;;;;;;;43.70;18.70;;;;;;;-142.75;100.00;78163.09;5028206;28;20105;-67
2022/05/06 06:03:43;;;;;;;;;;;;;;;-142.75;100.00;78141.44;5028356;28;20032;-67
2022/05/06 06:06:09;;;;;;;58.30;18.90;;;;;;;-142.75;100.00;78137.50;5027778;28;19913;-67
2022/05/06 06:08:35;;;;;;;55.30;19.55;;;;;;;-142.75;100.00;78117.81;5027368;28;20453;-68
2022/05/06 06:11:01;;;;;;;;;;;;;;;-142.75;100.00;78106.00;5028114;28;20029;-67
2022/05/06 06:13:28;;;;;;;57.15;20.33;;;;;;;-142.75;100.00;78098.13;5027937;28;19959;-67
2022/05/06 06:15:53;;;;;;;54.75;18.90;;;;;;;-142.75;100.00;78098.13;5026515;28;20029;-67
2022/05/06 06:18:24;;;;;;;49.38;19.70;;;;;;;-142.75;100.00;78094.19;5027293;28;20038;-67
2022/05/06 06:20:49;;;;;;;54.15;19.05;;;;;;;-142.75;100.00;78072.53;5027750;28;20545;-67
2022/05/06 06:23:15;;;;;;;49.10;19.60;;;;;;;-142.75;100.00;78054.81;5026461;28;20120;-66
2022/05/06 06:25:40;;;;;;;49.10;20.30;;;;;;;-142.75;100.00;78039.03;5027707;28;20056;-67
2022/05/06 06:28:05;;;;;;;51.63;21.13;;;;;;;-142.75;100.00;78023.28;5027338;28;20059;-67
2022/05/06 06:30:31;;;;;;;;;;;;;;;-142.75;100.00;78023.28;5025828;28;20029;-67
2022/05/06 06:32:56;;;;;;;53.72;20.35;;;;;;;-142.75;100.00;78023.28;5027391;28;20340;-67
2022/05/06 06:35:22;;;;;;;;;;;;;;;-142.75;100.00;77999.66;5026974;28;20032;-66
2022/05/06 06:37:47;;;;;;;59.15;21.90;;;;;;;-142.75;100.00;77960.28;5027338;28;20372;-66
2022/05/06 06:40:12;;;;;;;55.20;23.67;;;;;;;-142.75;100.00;77909.06;5027286;28;20053;-66
2022/05/06 06:42:39;;;;;;;57.05;23.73;;;;;;;-142.75;100.00;77865.75;5027719;28;20021;-66
2022/05/06 06:45:05;;;;;;;53.85;22.83;;;;;;;-142.75;100.00;77826.38;5026283;28;20116;-67
2022/05/06 06:47:30;;;;;;;55.72;21.65;;;;;;;-142.75;100.00;77804.72;5027376;28;20112;-67
2022/05/06 06:49:58;;;;;;;51.58;20.77;;;;;;;-142.75;100.00;77777.16;5027171;28;20025;-67
2022/05/06 06:52:23;;;;;;;45.83;20.13;;;;;;;-142.75;100.00;77783.06;5027310;28;20033;-67
2022/05/06 06:54:48;;;;;;;49.47;20.33;;;;;;;-142.75;100.00;77790.94;5026352;28;20021;-67
2022/05/06 06:57:13;;;;;;;43.10;19.02;;;;;;;-142.75;100.00;77765.34;5027612;28;20457;-67
2022/05/06 06:59:38;;;;;;;;;;;;;;;-142.75;100.00;77759.44;5025578;28;20026;-67
2022/05/06 07:02:04;;;;;;;41.53;19.25;;;;;;;-142.75;100.00;77727.94;5027133;28;19927;-66
2022/05/06 07:04:29;;;;;;;;;;;;;;;-142.75;100.00;77716.09;5027791;28;20030;-67
2022/05/06 07:12:23;;;;;;;44.03;18.90;;;;;;;-142.75;100.00;77635.38;5027286;28;20184;-67
2022/05/06 07:14:48;;;;;;;;;;;;;;;-142.75;100.00;77639.31;5010125;28;20246;-67
2022/05/06 07:17:13;;;;;;;47.95;19.77;;;;;;;-142.75;100.00;77647.19;5025521;28;20369;-67
2022/05/06 07:19:38;;;;;;;;;;;;;;;-142.75;100.00;77633.41;5029401;28;20025;-68
2022/05/06 07:22:04;;;;;;;45.95;19.63;;;;;;;-142.75;100.00;77607.81;5024028;28;20592;-68
2022/05/06 07:24:30;;;;;;;;;;;;;;;-142.75;100.00;77601.91;5011455;28;20078;-67
2022/05/06 07:26:56;;;;;;;49.60;19.98;;;;;;;-142.75;100.00;77631.44;5030916;28;19916;-68
2022/05/06 07:29:22;;;;;;;47.45;20.30;;;;;;;-142.75;100.00;77611.75;5030847;28;20108;-67
2022/05/06 07:31:47;;;;;;;;;;;;;;;-142.75;100.00;77572.38;5031770;28;20539;-68
2022/05/06 07:34:13;;;;;;;48.72;20.58;;;;;;;-142.75;100.00;77560.56;5032014;28;19912;-68
2022/05/06 07:36:42;;;;;;;;;;;;;;;-142.75;100.00;77552.69;5031349;28;20032;-67
2022/05/06 07:39:12;;;;;;;49.75;20.98;;;;;;;-142.75;100.00;77617.66;5030534;28;20448;-67
2022/05/06 07:41:38;;;;;;;43.13;19.17;;;;;;;-142.75;100.00;77578.28;5032398;28;20029;-67
2022/05/06 07:44:03;;;;;;;;;;;;;;;-142.75;100.00;77542.84;5032781;28;20404;-67
2022/05/06 07:46:28;;;;;;;50.90;19.67;;;;;;;-142.75;100.00;77491.66;5031954;28;19920;-67
2022/05/06 07:48:53;;;;;;;;;;;;;;;-142.75;100.00;77483.78;5032385;28;20028;-67
2022/05/06 07:51:19;;;;;;;36.78;18.20;;;;;;;-142.75;100.00;77515.28;5032270;28;20027;-66
2022/05/06 07:53:44;;;;;;;;;;;;;;;-142.75;100.00;77493.63;5032639;28;20475;-66
2022/05/06 07:56:09;;;;;;;41.00;18.52;;;;;;;-142.75;100.00;77458.16;5032184;28;19913;-68
2022/05/06 07:58:35;;;;;;;;;;;;;;;-142.75;100.00;77412.88;5032228;28;20059;-67
2022/05/06 08:01:01;;;;;;;32.55;16.35;;;;;;;-142.75;100.00;77369.56;5032060;28;20012;-67
2022/05/06 08:06:11;;;;;;;34.15;16.70;;;;;;;-142.75;100.00;77347.91;5032306;28;19924;-67
2022/05/06 08:08:37;;;;;;;37.17;15.98;;;;;;;-142.75;100.00;77381.38;5030219;28;20029;-67
2022/05/06 08:11:02;;;;;;;28.25;15.20;;;;;;;-142.75;100.00;77365.63;5031747;28;20132;-66
2022/05/06 08:13:28;;;;;;;;;;;;;;;-142.75;100.00;77377.44;5032291;28;20032;-68
2022/05/06 08:15:55;;;;;;;29.02;14.63;;;;;;;-142.75;100.00;77379.41;5030335;28;19966;-68
2022/05/06 08:18:20;;;;;;;29.95;15.30;;;;;;;-142.75;100.00;77308.53;5031430;28;20036;-69
2022/05/06 08:20:47;;;;;;;32.00;15.20;;;;;;;-142.75;100.00;77288.84;5030446;28;20021;-68
2022/05/06 08:23:13;;;;;;;29.90;14.75;;;;;;;-142.75;100.00;77286.88;5031563;28;20026;-67
2022/05/06 08:25:39;;;;;;;31.42;14.50;;;;;;;-142.75;100.00;77279.00;5031522;28;20116;-67
2022/05/06 08:28:05;;;;;;;30.75;15.60;;;;;;;-142.75;100.00;77259.31;5029890;28;20108;-67
2022/05/06 08:30:30;;;;;;;28.55;16.00;;;;;;;-142.75;100.00;77239.63;5031506;28;20056;-67
2022/05/06 08:32:56;;;;;;;;;;;;;;;-142.75;100.00;77217.97;5031831;28;20031;-68
2022/05/06 08:35:22;;;;;;;27.83;14.23;;;;;;;-142.75;100.00;77154.97;5031708;28;20294;-68
2022/05/06 08:37:48;;;;;;;25.90;14.48;;;;;;;-142.75;100.00;77109.69;5031108;28;20045;-68
2022/05/06 08:40:18;;;;;;;32.95;13.98;;;;;;;-142.75;100.00;77113.63;5029884;28;20021;-67
2022/05/06 08:42:44;;;;;;;22.73;12.98;;;;;;;-142.75;100.00;77111.66;5031103;28;20025;-67
2022/05/06 08:50:52;;;;;;;23.05;13.27;;;;;;;-142.75;100.00;77101.81;5031258;28;20029;-69
2022/05/06 08:53:20;;;;;;;20.85;12.68;;;;;;;-142.75;100.00;77074.25;5030909;28;20021;-69
2022/05/06 08:55:45;;;;;;;23.48;13.70;;;;;;;-142.75;100.00;77076.22;5029737;28;20029;-69
2022/05/06 08:58:11;;;;;;;22.95;12.75;;;;;;;-142.75;100.00;77068.34;5030796;28;20680;-69
2022/05/06 09:00:36;;;;;;;21.77;13.00;;;;;;;-142.75;100.00;77019.13;5029330;28;20491;-67
2022/05/06 09:03:02;;;;;;;24.08;13.43;;;;;;;-142.75;100.00;76965.97;5030750;28;20028;-66
2022/05/06 09:05:27;;;;;;;25.02;14.63;;;;;;;-142.75;100.00;76977.78;5029581;28;20036;-68
2022/05/06 09:07:58;;;;;;;21.35;12.60;;;;;;;-142.75;100.00;76950.22;5030429;28;20474;-69
2022/05/06 09:10:24;;;;;;;22.85;12.25;;;;;;;-142.75;100.00;76932.50;5030163;28;20091;-69
2022/05/06 09:12:53;;;;;;;22.98;14.00;;;;;;;-142.75;100.00;76954.16;5030784;28;20017;-69
2022/05/06 09:18:05;;;;;;;26.92;14.98;;;;;;;-142.75;100.00;76912.81;5030791;28;20044;-69
2022/05/06 09:20:30;;;;;;;23.90;14.90;;;;;;;-142.75;100.00;76901.00;5030270;28;20018;-69
2022/05/06 09:22:57;;;;;;;22.20;15.15;;;;;;;-142.75;100.00;76928.56;5030614;28;20025;-70
2022/05/06 09:25:42;;;;;;;24.60;15.93;;;;;;;-142.75;100.00;76853.75;5030399;28;20101;-68
2022/05/06 09:28:32;;;;;;;22.52;13.25;;;;;;;-142.75;100.00;76838.00;5027181;28;20021;-68
2022/05/06 09:31:08;;;;;;;20.50;12.18;;;;;;;-142.75;100.00;76861.63;5030000;28;20106;-68
2022/05/06 09:33:40;;;;;;;18.70;11.82;;;;;;;-142.75;100.00;76808.50;5029943;28;20408;-69
2022/05/06 09:36:23;;;;;;;18.83;11.18;;;;;;;-142.75;100.00;76759.28;5029940;28;20034;-68
2022/05/06 09:39:12;;;;;;;16.48;10.10;;;;;;;-142.75;100.00;76719.91;5028028;28;20029;-68
2022/05/06 09:41:38;;;;;;;12.93;8.35;;;;;;;-142.75;100.00;76698.25;5027954;28;20042;-68
2022/05/06 09:44:09;;;;;;;17.50;8.63;;;;;;;-142.75;100.00;76704.16;5029656;28;20517;-68
2022/05/06 09:46:35;;;;;;;9.88;6.80;;;;;;;-142.75;100.00;76670.69;5029732;28;20028;-68
2022/05/06 09:49:03;;;;;;;10.82;7.55;;;;;;;-142.75;100.00;76643.13;5029295;28;20033;-70
2022/05/06 09:51:35;;;;;;;10.82;6.38;;;;;;;-142.75;100.00;76712.03;5029576;28;20117;-69
2022/05/06 09:54:03;;;;;;;10.70;6.03;;;;;;;-142.75;100.00;76706.13;5029862;28;20083;-69
2022/05/06 09:56:29;;;;;;;9.27;5.93;;;;;;;-142.75;100.00;76696.28;5028297;28;20071;-68
2022/05/06 09:58:58;;;;;;;9.75;5.97;;;;;;;-142.75;100.00;76652.97;5028874;28;20104;-70
2022/05/06 10:01:24;;;;;;;11.40;7.03;;;;;;;-142.75;93.42;76721.88;5029876;28;20032;-69
2022/05/06 10:03:51;;;;;;;10.60;6.30;;;;;;;-142.75;88.98;76664.78;5029629;28;20025;-68
2022/05/06 10:06:17;;;;;;;10.98;7.05;;;;;;;-142.75;89.29;76660.84;5028696;28;20022;-68
2022/05/06 10:08:53;;;;;;;8.98;5.85;;;;;;;-142.75;90.10;76641.16;5029854;28;20083;-67
2022/05/06 10:11:23;;;;;;;10.80;6.60;;;;;;;-142.75;84.16;76615.56;5029700;28;20422;-68
2022/05/06 10:13:50;;;;;;;9.80;6.20;;;;;;;-142.75;88.91;76568.31;5029793;28;20056;-68
2022/05/06 10:16:16;;;;;;;10.13;5.65;;;;;;;-142.75;86.13;76530.91;5029878;28;20087;-68
2022/05/06 10:18:43;;;;;;;11.40;6.38;;;;;;;-142.75;86.68;76527.00;5054155;22;20049;-65
2022/05/06 10:21:13;;;;;;;11.20;6.47;;;;;;;-142.75;77.06;76491.56;5031620;28;20375;-65
2022/05/06 10:23:48;;;;;;;8.32;5.68;;;;;;;-142.75;75.30;76499.44;5033002;28;20042;-65
2022/05/06 10:26:35;;;;;;;12.48;6.72;;;;;;;-142.75;73.93;76538.78;5033941;28;20017;-65
2022/05/06 10:34:31;;;;;;;9.38;5.95;;;;;;;-142.75;79.84;76589.97;5034800;28;21145;-65
2022/05/06 10:37:00;;;;;;;13.00;7.32;;;;;;;-142.75;74.20;76633.28;5034230;28;20025;-65
2022/05/06 10:39:32;;;;;;;11.50;7.07;;;;;;;-142.75;74.75;76647.06;5033701;28;20075;-65
2022/05/06 10:42:05;;;;;;;11.02;7.05;;;;;;;-142.75;74.29;76566.34;5034088;28;20483;-65
2022/05/06 10:44:33;;;;;;;12.68;7.25;;;;;;;-142.75;70.55;76528.97;5034199;28;20037;-66
2022/05/06 10:46:58;;;;;;;11.10;6.78;;;;;;;-142.75;73.13;76493.53;5034281;28;20079;-66
2022/05/06 10:49:39;;;;;;;10.10;7.00;;;;;;;-142.75;68.71;76444.31;5034356;28;20018;-66
2022/05/06 10:52:32;;;;;;;11.30;7.22;;;;;;;-142.75;67.68;76434.47;5034119;28;20422;-66
2022/05/06 10:55:03;;;;;;;13.00;7.65;;;;;;;-142.75;66.30;76448.25;5030580;28;20040;-65
2022/05/06 10:57:43;;;;;;;12.70;7.13;;;;;;;-142.75;67.36;76430.53;5037757;28;20033;-66
2022/05/06 11:00:09;;;;;;;10.48;6.82;;;;;;;-142.75;65.17;76420.69;5037622;28;20017;-65
2022/05/06 11:02:37;;;;;;;10.45;6.20;;;;;;;-142.75;69.01;76391.16;5036973;28;20033;-65
2022/05/06 11:05:16;;;;;;;14.52;7.50;;;;;;;-142.75;67.77;76387.22;5036040;28;20032;-65
2022/05/06 11:07:45;;;;;;;13.25;7.30;;;;;;;-142.75;66.95;76432.50;5035774;28;20025;-65
2022/05/06 11:10:21;;;;;;;11.63;6.97;;;;;;;-142.75;66.22;76369.50;5036672;28;20018;-65
2022/05/06 11:12:48;;;;;;;13.45;6.93;;;;;;;-142.75;63.71;76381.31;5034696;28;20038;-66
2022/05/06 11:15:16;;;;;;;10.55;7.10;;;;;;;-142.75;63.92;76312.44;5037130;28;20029;-66
2022/05/06 11:17:43;;;;;;;15.80;6.55;;;;;;;-142.75;63.33;76257.31;5033781;28;20029;-66
2022/05/06 11:20:23;;;;;;;14.27;8.05;;;;;;;-142.75;62.74;76393.13;5030786;28;20479;-66
2022/05/06 11:23:08;;;;;;;11.57;7.00;;;;;;;-142.75;64.34;76347.84;5034283;28;20068;-66
2022/05/06 11:25:44;;;;;;;10.63;7.07;;;;;;;-142.75;61.90;76290.78;5037032;28;20132;-67
2022/05/06 11:28:16;;;;;;;12.82;7.70;;;;;;;-142.75;62.77;76310.47;5036372;28;20120;-67
2022/05/06 11:30:46;;;;;;;11.55;7.68;;;;;;;-142.75;60.37;76282.91;5035262;28;20059;-67
2022/05/06 11:33:26;;;;;;;12.02;7.70;;;;;;;-142.75;62.13;76383.28;5036546;28;20102;-66
2022/05/06 11:36:01;;;;;;;12.27;7.78;;;;;;;-142.75;65.51;76351.81;5036711;28;20025;-67
2022/05/06 11:38:31;;;;;;;14.02;8.73;;;;;;;-142.75;60.56;76314.41;5034849;28;20515;-66
2022/05/06 11:41:05;;;;;;;15.45;7.75;;;;;;;-142.75;61.87;76269.13;5036460;28;20029;-67
2022/05/06 11:43:30;;;;;;;15.27;8.93;;;;;;;-142.75;60.75;76290.78;5036243;28;20033;-66